createdAt,value
2022-12-23T00:01:09.350Z,9.63
2022-12-23T00:03:36.573Z,9.65
2022-12-23T00:06:13.475Z,9.64
2022-12-23T00:08:41.561Z,9.63
2022-12-23T00:11:15.855Z,9.61
2022-12-23T00:14:02.398Z,9.65
2022-12-23T00:16:30.082Z,9.66
2022-12-23T00:18:57.255Z,9.66
2022-12-23T00:21:24.537Z,9.62
2022-12-23T00:23:52.122Z,9.62
2022-12-23T00:26:26.090Z,9.64
2022-12-23T00:28:55.117Z,9.64
2022-12-23T00:31:22.344Z,9.63
2022-12-23T00:33:53.290Z,9.60
2022-12-23T00:36:28.018Z,9.61
2022-12-23T00:39:15.701Z,9.64
2022-12-23T00:42:01.615Z,9.58
2022-12-23T00:44:29.114Z,9.63
2022-12-23T00:46:56.138Z,9.55
2022-12-23T00:49:42.026Z,9.58
2022-12-23T00:52:15.721Z,9.55
2022-12-23T00:54:43.191Z,9.56
2022-12-23T00:57:10.476Z,9.49
2022-12-23T00:59:37.688Z,9.54
2022-12-23T01:02:23.744Z,9.53
2022-12-23T01:05:09.792Z,9.52
2022-12-23T01:07:36.885Z,9.47
2022-12-23T01:10:04.473Z,9.46
2022-12-23T01:12:31.557Z,9.49
2022-12-23T01:14:58.647Z,9.44
2022-12-23T01:17:25.760Z,9.45
2022-12-23T01:19:53.020Z,9.44
2022-12-23T01:22:20.129Z,9.44
2022-12-23T01:24:47.221Z,9.49
2022-12-23T01:27:14.327Z,9.49
2022-12-23T01:29:41.471Z,9.44
2022-12-23T01:32:08.638Z,9.43
2022-12-23T01:34:37.378Z,9.47
2022-12-23T01:37:05.097Z,9.44
2022-12-23T01:39:32.346Z,9.43
2022-12-23T01:42:18.127Z,9.43
2022-12-23T01:45:21.099Z,9.44
2022-12-23T01:48:18.551Z,9.42
2022-12-23T01:50:49.367Z,9.41
2022-12-23T01:53:30.109Z,9.38
2022-12-23T01:56:23.948Z,9.40
2022-12-23T01:59:11.259Z,9.39
2022-12-23T02:01:57.165Z,9.39
2022-12-23T02:04:26.489Z,9.36
2022-12-23T02:07:12.465Z,9.36
2022-12-23T02:09:41.073Z,9.37
2022-12-23T02:12:34.389Z,9.34
2022-12-23T02:15:26.897Z,9.33
2022-12-23T02:18:24.851Z,9.34
2022-12-23T02:21:32.519Z,9.35
2022-12-23T02:24:36.027Z,9.36
2022-12-23T02:27:16.135Z,9.31
2022-12-23T02:30:04.853Z,9.34
2022-12-23T02:32:57.024Z,9.32
2022-12-23T02:35:41.011Z,9.30
2022-12-23T02:38:22.870Z,9.26
2022-12-23T02:41:25.255Z,9.30
2022-12-23T02:44:01.824Z,9.24
2022-12-23T02:46:50.242Z,9.25
2022-12-23T02:49:35.552Z,9.20
2022-12-23T02:52:08.907Z,9.23
2022-12-23T02:54:44.276Z,9.20
2022-12-23T02:57:13.273Z,9.13
2022-12-23T02:59:47.278Z,9.19
2022-12-23T03:02:14.640Z,9.14
2022-12-23T03:04:42.320Z,9.07
2022-12-23T03:07:41.710Z,9.05
2022-12-23T03:10:36.840Z,9.04
2022-12-23T03:13:20.430Z,9.01
2022-12-23T03:16:10.582Z,9.01
2022-12-23T03:19:24.508Z,8.91
2022-12-23T03:22:08.589Z,8.91
2022-12-23T03:25:08.045Z,8.84
2022-12-23T03:27:51.764Z,8.80
2022-12-23T03:30:21.311Z,8.77
2022-12-23T03:33:04.074Z,8.74
2022-12-23T03:35:40.224Z,8.79
2022-12-23T03:38:08.829Z,8.79
2022-12-23T03:40:48.248Z,8.78
2022-12-23T03:43:28.706Z,8.78
2022-12-23T03:46:01.843Z,8.77
2022-12-23T03:48:53.723Z,8.76
2022-12-23T03:51:29.363Z,8.71
2022-12-23T03:54:05.436Z,8.72
2022-12-23T03:56:56.768Z,8.74
2022-12-23T03:59:28.750Z,8.71
2022-12-23T04:02:04.382Z,8.72
2022-12-23T04:05:07.681Z,8.74
2022-12-23T04:07:45.174Z,8.73
2022-12-23T04:10:13.899Z,8.73
2022-12-23T04:12:41.205Z,8.72
2022-12-23T04:15:12.851Z,8.71
2022-12-23T04:17:40.296Z,8.75
2022-12-23T04:20:08.397Z,8.74
2022-12-23T04:22:35.578Z,8.75
2022-12-23T04:25:02.735Z,8.73
2022-12-23T04:27:30.013Z,8.72
2022-12-23T04:29:57.069Z,8.71
2022-12-23T04:32:24.116Z,8.72
2022-12-23T04:34:51.227Z,8.74
2022-12-23T04:37:18.440Z,8.74
2022-12-23T04:39:45.556Z,8.75
2022-12-23T04:42:12.697Z,8.77
2022-12-23T04:44:39.789Z,8.78
2022-12-23T04:47:06.955Z,8.77
2022-12-23T04:49:34.122Z,8.76
2022-12-23T04:52:01.300Z,8.78
2022-12-23T04:54:28.456Z,8.76
2022-12-23T04:56:55.671Z,8.77
2022-12-23T04:59:22.949Z,8.78
2022-12-23T05:01:50.264Z,8.79
2022-12-23T05:04:17.608Z,8.79
2022-12-23T05:06:44.751Z,8.82
2022-12-23T05:09:11.817Z,8.81
2022-12-23T05:11:42.303Z,8.81
2022-12-23T05:14:13.459Z,8.83
2022-12-23T05:16:40.668Z,8.83
2022-12-23T05:19:08.168Z,8.84
2022-12-23T05:21:35.225Z,8.82
2022-12-23T05:24:02.358Z,8.83
2022-12-23T05:26:29.523Z,8.84
2022-12-23T05:28:56.732Z,8.85
2022-12-23T05:31:23.932Z,8.82
2022-12-23T05:33:51.134Z,8.86
2022-12-23T05:36:18.267Z,8.85
2022-12-23T05:38:45.417Z,8.85
2022-12-23T05:41:12.586Z,8.81
2022-12-23T05:43:39.722Z,8.82
2022-12-23T05:46:06.781Z,8.79
2022-12-23T05:48:34.037Z,8.82
2022-12-23T05:51:01.256Z,8.79
2022-12-23T05:53:28.433Z,8.83
2022-12-23T05:55:55.627Z,8.79
2022-12-23T05:58:22.752Z,8.82
2022-12-23T06:00:49.890Z,8.84
2022-12-23T06:03:17.164Z,8.78
2022-12-23T06:05:44.450Z,8.80
2022-12-23T06:08:11.588Z,8.82
2022-12-23T06:10:38.683Z,8.83
2022-12-23T06:13:08.139Z,8.83
2022-12-23T06:16:00.605Z,8.82
2022-12-23T06:18:27.694Z,8.84
2022-12-23T06:20:54.838Z,8.82
2022-12-23T06:23:21.941Z,8.82
2022-12-23T06:25:49.070Z,8.79
2022-12-23T06:28:16.429Z,8.81
2022-12-23T06:30:43.549Z,8.81
2022-12-23T06:33:10.688Z,8.83
2022-12-23T06:35:37.758Z,8.83
2022-12-23T06:38:10.282Z,8.79
2022-12-23T06:40:39.137Z,8.78
2022-12-23T06:43:06.448Z,8.79
2022-12-23T06:45:33.644Z,8.77
2022-12-23T06:48:00.766Z,8.80
2022-12-23T06:50:27.893Z,8.81
2022-12-23T06:52:54.985Z,8.78
2022-12-23T06:55:22.077Z,8.78
2022-12-23T06:57:49.263Z,8.76
2022-12-23T07:00:17.001Z,8.76
2022-12-23T07:02:44.243Z,8.76
2022-12-23T07:05:11.433Z,8.80
2022-12-23T07:07:38.533Z,8.76
2022-12-23T07:10:07.783Z,8.77
2022-12-23T07:12:34.806Z,8.81
2022-12-23T07:15:01.928Z,8.80
2022-12-23T07:17:29.146Z,8.75
2022-12-23T07:19:56.287Z,8.78
2022-12-23T07:22:23.385Z,8.79
2022-12-23T07:24:50.484Z,8.75
2022-12-23T07:27:17.589Z,8.76
2022-12-23T07:29:44.709Z,8.76
2022-12-23T07:32:11.909Z,8.75
2022-12-23T07:34:39.081Z,8.76
2022-12-23T07:37:06.163Z,8.75
2022-12-23T07:39:34.458Z,8.75
2022-12-23T07:42:33.829Z,8.78
2022-12-23T07:44:48.754Z,8.75
2022-12-23T07:47:15.930Z,8.76
2022-12-23T07:49:42.936Z,8.76
2022-12-23T07:52:09.993Z,8.78
2022-12-23T07:54:37.086Z,8.78
2022-12-23T07:57:04.270Z,8.75
2022-12-23T07:59:31.350Z,8.78
2022-12-23T08:01:58.630Z,8.79
2022-12-23T08:04:25.891Z,8.78
2022-12-23T08:06:53.005Z,8.76
2022-12-23T08:09:20.054Z,8.76
2022-12-23T08:11:47.106Z,8.76
2022-12-23T08:14:14.173Z,8.81
2022-12-23T08:16:43.898Z,8.78
2022-12-23T08:19:11.614Z,8.78
2022-12-23T08:21:38.672Z,8.82
2022-12-23T08:24:06.080Z,8.75
2022-12-23T08:26:33.279Z,8.78
2022-12-23T08:29:01.251Z,8.80
2022-12-23T08:31:31.867Z,8.79
2022-12-23T08:34:01.034Z,8.78
2022-12-23T08:36:36.225Z,8.78
2022-12-23T08:39:08.260Z,8.76
2022-12-23T08:41:42.363Z,8.78
2022-12-23T08:44:09.849Z,8.81
2022-12-23T08:46:38.252Z,8.82
2022-12-23T08:49:06.498Z,8.86
2022-12-23T08:51:35.424Z,8.85
2022-12-23T08:54:03.429Z,8.81
2022-12-23T08:56:35.996Z,8.82
2022-12-23T08:59:04.388Z,8.85
2022-12-23T09:01:34.537Z,8.85
2022-12-23T09:04:06.997Z,8.82
2022-12-23T09:06:41.144Z,8.83
2022-12-23T09:09:12.087Z,8.86
2022-12-23T09:11:39.755Z,8.86
2022-12-23T09:14:08.589Z,8.82
2022-12-23T09:16:35.960Z,8.89
2022-12-23T09:19:03.514Z,8.88
2022-12-23T09:21:30.851Z,8.83
2022-12-23T09:23:57.982Z,8.84
2022-12-23T09:26:29.111Z,8.87
2022-12-23T09:28:57.269Z,8.87
2022-12-23T09:31:30.485Z,8.84
2022-12-23T09:34:01.428Z,8.90
2022-12-23T09:36:29.828Z,8.88
2022-12-23T09:38:58.416Z,8.95
2022-12-23T09:41:39.282Z,8.90
2022-12-23T09:44:50.298Z,8.93
2022-12-23T09:47:22.316Z,8.91
2022-12-23T09:49:59.333Z,8.93
2022-12-23T09:52:40.552Z,8.91
2022-12-23T09:55:12.059Z,8.96
2022-12-23T09:58:01.054Z,8.95
2022-12-23T10:00:42.103Z,8.93
2022-12-23T10:03:31.169Z,8.92
2022-12-23T10:06:22.877Z,8.96
2022-12-23T10:08:55.178Z,9.00
2022-12-23T10:11:45.055Z,8.99
2022-12-23T10:14:28.153Z,8.97
2022-12-23T10:17:07.163Z,9.01
2022-12-23T10:19:44.423Z,9.00
2022-12-23T10:22:26.752Z,9.00
2022-12-23T10:24:57.275Z,9.03
2022-12-23T10:27:39.843Z,9.02
2022-12-23T10:33:47.134Z,9.05
2022-12-23T10:36:40.683Z,9.08
2022-12-23T10:39:49.914Z,9.08
2022-12-23T10:42:37.020Z,9.08
2022-12-23T10:45:23.507Z,9.04
2022-12-23T10:48:33.606Z,9.05
2022-12-23T10:51:14.162Z,9.10
2022-12-23T10:53:51.340Z,9.05
2022-12-23T10:56:19.993Z,9.11
2022-12-23T10:58:53.950Z,9.07
2022-12-23T11:01:26.971Z,9.09
2022-12-23T11:04:07.883Z,9.16
2022-12-23T11:06:42.452Z,9.17
2022-12-23T11:09:19.328Z,9.17
2022-12-23T11:12:08.439Z,9.13
2022-12-23T11:14:51.992Z,9.14
2022-12-23T11:17:36.008Z,9.17
2022-12-23T11:20:14.770Z,9.19
2022-12-23T11:22:58.277Z,9.20
2022-12-23T11:25:27.698Z,9.19
2022-12-23T11:28:10.785Z,9.24
2022-12-23T11:31:05.604Z,9.24
2022-12-23T11:33:45.683Z,9.23
2022-12-23T11:36:12.719Z,9.24
2022-12-23T11:39:10.380Z,9.27
2022-12-23T11:41:49.340Z,9.28
2022-12-23T11:44:38.611Z,9.27
2022-12-23T11:47:34.681Z,9.25
2022-12-23T11:50:20.123Z,9.25
2022-12-23T11:52:55.159Z,9.29
2022-12-23T11:55:32.849Z,9.30
2022-12-23T11:58:02.453Z,9.31
2022-12-23T12:00:39.849Z,9.31
2022-12-23T12:03:14.472Z,9.29
2022-12-23T12:05:51.169Z,9.32
2022-12-23T12:08:28.128Z,9.34
2022-12-23T12:11:12.028Z,9.32
2022-12-23T12:13:42.313Z,9.29
2022-12-23T12:16:30.338Z,9.28
2022-12-23T12:19:05.985Z,9.31
2022-12-23T12:21:38.252Z,9.33
2022-12-23T12:24:20.393Z,9.30
2022-12-23T12:26:54.448Z,9.31
2022-12-23T12:29:44.499Z,9.29
2022-12-23T12:32:51.558Z,9.29
2022-12-23T12:35:53.470Z,9.29
2022-12-23T12:38:33.024Z,9.29
2022-12-23T12:41:30.533Z,9.32
2022-12-23T12:44:17.327Z,9.30
2022-12-23T12:46:57.277Z,9.26
2022-12-23T12:49:39.624Z,9.26
2022-12-23T12:52:24.779Z,9.27
2022-12-23T12:55:23.929Z,9.27
2022-12-23T12:57:51.094Z,9.29
2022-12-23T13:00:23.713Z,9.25
2022-12-23T13:02:56.493Z,9.25
2022-12-23T13:05:53.772Z,9.24
2022-12-23T13:08:39.479Z,9.22
2022-12-23T13:11:16.632Z,9.22
2022-12-23T13:14:09.759Z,9.26
2022-12-23T13:17:15.610Z,9.25
2022-12-23T13:20:05.705Z,9.25
2022-12-23T13:22:34.605Z,9.24
2022-12-23T13:25:20.798Z,9.27
2022-12-23T13:27:57.669Z,9.24
2022-12-23T13:30:31.867Z,9.26
2022-12-23T13:33:41.909Z,9.22
2022-12-23T13:36:52.592Z,9.21
2022-12-23T13:39:31.248Z,9.22
2022-12-23T13:42:05.672Z,9.22
2022-12-23T13:44:34.880Z,9.22
2022-12-23T13:47:49.005Z,9.24
2022-12-23T13:50:43.651Z,9.20
2022-12-23T13:53:49.905Z,9.17
2022-12-23T13:56:46.184Z,9.15
2022-12-23T13:59:16.277Z,9.18
2022-12-23T14:01:48.201Z,9.14
2022-12-23T14:04:57.819Z,9.14
2022-12-23T14:07:25.114Z,9.11
2022-12-23T14:09:57.373Z,9.13
2022-12-23T14:12:30.817Z,9.14
2022-12-23T14:15:25.118Z,9.14
2022-12-23T14:18:29.262Z,9.14
2022-12-23T14:21:05.896Z,9.15
2022-12-23T14:23:50.355Z,9.19
2022-12-23T14:26:46.797Z,9.19
2022-12-23T14:29:43.548Z,9.22
2022-12-23T14:32:29.632Z,9.23
2022-12-23T14:35:42.896Z,9.25
2022-12-23T14:38:15.890Z,9.24
2022-12-23T14:40:42.873Z,9.25
2022-12-23T14:43:37.701Z,9.23
2022-12-23T14:46:08.304Z,9.22
2022-12-23T14:48:47.808Z,9.22
2022-12-23T14:51:14.768Z,9.23
2022-12-23T14:54:00.024Z,9.21
2022-12-23T14:56:39.311Z,9.23
2022-12-23T14:59:38.440Z,9.24
2022-12-23T15:02:19.434Z,9.22
2022-12-23T15:04:58.166Z,9.22
2022-12-23T15:07:34.910Z,9.23
2022-12-23T15:10:17.221Z,9.21
2022-12-23T15:12:52.567Z,9.22
2022-12-23T15:15:25.142Z,9.18
2022-12-23T15:18:09.855Z,9.21
2022-12-23T15:20:37.000Z,9.18
2022-12-23T15:23:12.482Z,9.19
2022-12-23T15:25:49.222Z,9.13
2022-12-23T15:28:23.151Z,9.17
2022-12-23T15:30:55.045Z,9.15
2022-12-23T15:34:01.705Z,9.14
2022-12-23T15:36:18.522Z,9.11
2022-12-23T15:38:45.650Z,9.15
2022-12-23T15:41:18.528Z,9.13
2022-12-23T15:43:45.777Z,9.11
2022-12-23T15:46:26.877Z,9.14
2022-12-23T15:48:57.177Z,9.12
2022-12-23T15:52:05.704Z,9.10
2022-12-23T15:54:29.459Z,9.10
2022-12-23T15:56:59.121Z,9.13
2022-12-23T15:59:33.845Z,9.13
2022-12-23T16:03:00.536Z,9.10
2022-12-23T16:05:37.757Z,9.11
2022-12-23T16:08:15.164Z,9.15
2022-12-23T16:11:13.205Z,9.11
2022-12-23T16:13:47.339Z,9.12
2022-12-23T16:16:39.031Z,9.08
2022-12-23T16:19:26.936Z,9.14
2022-12-23T16:21:54.085Z,9.17
2022-12-23T16:24:21.381Z,9.13
2022-12-23T16:26:48.482Z,9.12
2022-12-23T16:29:15.714Z,9.12
2022-12-23T16:31:49.822Z,9.14
2022-12-23T16:34:19.369Z,9.13
2022-12-23T16:36:46.567Z,9.12
2022-12-23T16:39:22.228Z,9.11
2022-12-23T16:41:50.312Z,9.14
2022-12-23T16:44:17.526Z,9.11
2022-12-23T16:46:48.993Z,9.13
2022-12-23T16:49:20.359Z,9.14
2022-12-23T16:51:48.457Z,9.11
2022-12-23T16:54:18.579Z,9.13
2022-12-23T16:56:46.795Z,9.12
2022-12-23T16:59:14.670Z,9.13
2022-12-23T17:01:46.299Z,9.14
2022-12-23T17:04:13.507Z,9.10
2022-12-23T17:06:41.420Z,9.13
2022-12-23T17:09:10.045Z,9.14
2022-12-23T17:11:45.475Z,9.18
2022-12-23T17:14:21.103Z,9.14
2022-12-23T17:16:49.271Z,9.13
2022-12-23T17:19:21.896Z,9.12
2022-12-23T17:22:00.235Z,9.15
2022-12-23T17:24:27.671Z,9.12
2022-12-23T17:26:56.775Z,9.13
2022-12-23T17:29:24.067Z,9.08
2022-12-23T17:31:51.708Z,9.13
2022-12-23T17:34:24.677Z,9.12
2022-12-23T17:36:52.867Z,9.13
2022-12-23T17:39:21.395Z,9.18
2022-12-23T17:41:49.373Z,9.20
2022-12-23T17:44:18.078Z,9.20
2022-12-23T17:46:46.229Z,9.18
2022-12-23T17:49:13.715Z,9.21
2022-12-23T17:51:41.954Z,9.20
2022-12-23T17:54:22.825Z,9.23
2022-12-23T17:56:50.823Z,9.27
2022-12-23T17:59:17.979Z,9.27
2022-12-23T18:01:45.266Z,9.30
2022-12-23T18:04:12.477Z,9.33
2022-12-23T18:06:39.629Z,9.34
2022-12-23T18:09:06.665Z,9.36
2022-12-23T18:11:43.823Z,9.40
2022-12-23T18:14:19.960Z,9.47
2022-12-23T18:16:47.184Z,9.48
2022-12-23T18:19:20.535Z,9.49
2022-12-23T18:21:48.340Z,9.54
2022-12-23T18:24:16.771Z,9.54
2022-12-23T18:26:44.500Z,9.63
2022-12-23T18:29:11.738Z,9.69
2022-12-23T18:31:51.004Z,9.69
2022-12-23T18:34:18.561Z,9.73
2022-12-23T18:36:46.246Z,9.75
2022-12-23T18:39:13.395Z,9.76
2022-12-23T18:41:40.475Z,9.76
2022-12-23T18:44:20.299Z,9.81
2022-12-23T18:46:48.567Z,9.82
2022-12-23T18:49:15.758Z,9.85
2022-12-23T18:51:42.896Z,9.83
2022-12-23T18:54:15.213Z,9.83
2022-12-23T18:56:42.969Z,9.92
2022-12-23T18:59:17.409Z,9.91
2022-12-23T19:01:44.879Z,9.89
2022-12-23T19:04:12.218Z,9.89
2022-12-23T19:06:39.558Z,9.89
2022-12-23T19:09:07.958Z,9.94
2022-12-23T19:11:35.058Z,9.93
2022-12-23T19:14:03.022Z,9.88
2022-12-23T19:16:30.236Z,9.92
2022-12-23T19:18:57.414Z,9.91
2022-12-23T19:21:24.548Z,9.92
2022-12-23T19:23:51.660Z,9.94
2022-12-23T19:26:18.717Z,9.91
2022-12-23T19:28:48.115Z,9.92
2022-12-23T19:31:16.675Z,9.92
2022-12-23T19:33:46.712Z,9.91
2022-12-23T19:36:22.490Z,9.90
2022-12-23T19:38:49.811Z,9.95
2022-12-23T19:41:17.464Z,9.94
2022-12-23T19:43:46.351Z,9.93
2022-12-23T19:46:15.832Z,9.91
2022-12-23T19:48:43.330Z,9.95
2022-12-23T19:51:14.319Z,9.88
2022-12-23T19:53:42.773Z,9.88
2022-12-23T19:56:16.306Z,9.91
2022-12-23T19:58:44.649Z,9.97
2022-12-23T20:01:17.241Z,9.99
2022-12-23T20:03:46.788Z,9.96
2022-12-23T20:06:18.303Z,9.96
2022-12-23T20:08:45.732Z,9.94
2022-12-23T20:11:23.369Z,9.95
2022-12-23T20:13:55.057Z,9.95
2022-12-23T20:16:23.388Z,9.97
2022-12-23T20:18:50.645Z,10.01
2022-12-23T20:21:18.437Z,9.98
2022-12-23T20:23:45.637Z,9.97
2022-12-23T20:26:14.386Z,9.99
2022-12-23T20:28:41.876Z,9.99
2022-12-23T20:31:24.743Z,10.00
2022-12-23T20:33:53.318Z,9.99
2022-12-23T20:36:27.356Z,10.00
2022-12-23T20:38:55.982Z,9.99
2022-12-23T20:41:26.816Z,10.01
2022-12-23T20:44:32.389Z,9.96
2022-12-23T20:46:42.025Z,10.00
2022-12-23T20:49:09.129Z,10.03
2022-12-23T20:51:36.191Z,10.01
2022-12-23T20:54:03.254Z,10.00
2022-12-23T20:56:31.507Z,10.01
2022-12-23T20:59:00.074Z,9.98
2022-12-23T21:01:30.812Z,10.02
2022-12-23T21:04:00.583Z,10.00
2022-12-23T21:06:31.183Z,10.03
2022-12-23T21:09:00.203Z,10.01
2022-12-23T21:11:30.057Z,9.98
2022-12-23T21:14:02.587Z,10.00
2022-12-23T21:16:33.645Z,10.01
2022-12-23T21:19:00.897Z,9.97
2022-12-23T21:21:28.747Z,9.96
2022-12-23T21:23:59.588Z,9.91
2022-12-23T21:26:32.468Z,9.94
2022-12-23T21:29:02.042Z,9.94
2022-12-23T21:31:31.366Z,9.90
2022-12-23T21:33:59.434Z,9.85
2022-12-23T21:36:33.199Z,9.91
2022-12-23T21:39:00.993Z,9.87
2022-12-23T21:41:33.867Z,9.88
2022-12-23T21:44:01.313Z,9.86
2022-12-23T21:46:29.891Z,9.83
2022-12-23T21:48:58.741Z,9.85
2022-12-23T21:51:39.424Z,9.82
2022-12-23T21:54:09.461Z,9.79
2022-12-23T21:56:37.188Z,9.78
2022-12-23T21:59:13.662Z,9.76
2022-12-23T22:01:42.418Z,9.79
2022-12-23T22:04:09.693Z,9.74
2022-12-23T22:06:44.289Z,9.77
2022-12-23T22:09:19.849Z,9.75
2022-12-23T22:11:47.988Z,9.73
2022-12-23T22:14:18.145Z,9.73
2022-12-23T22:16:45.367Z,9.75
2022-12-23T22:19:13.031Z,9.69
2022-12-23T22:21:42.290Z,9.69
2022-12-23T22:24:09.459Z,9.65
2022-12-23T22:26:36.872Z,9.67
2022-12-23T22:29:06.447Z,9.61
2022-12-23T22:31:45.416Z,9.60
2022-12-23T22:34:19.777Z,9.59
2022-12-23T22:36:47.804Z,9.61
2022-12-23T22:39:21.209Z,9.58
2022-12-23T22:41:50.891Z,9.56
2022-12-23T22:44:18.401Z,9.53
2022-12-23T22:46:45.719Z,9.52
2022-12-23T22:49:14.408Z,9.46
2022-12-23T22:51:43.262Z,9.50
2022-12-23T22:54:10.716Z,9.48
2022-12-23T22:56:38.161Z,9.49
2022-12-23T22:59:05.459Z,9.45
2022-12-23T23:01:35.906Z,9.45
2022-12-23T23:04:04.619Z,9.46
2022-12-23T23:06:40.214Z,9.43
2022-12-23T23:09:11.949Z,9.40
2022-12-23T23:11:39.216Z,9.39
2022-12-23T23:14:06.488Z,9.38
2022-12-23T23:16:34.240Z,9.37
2022-12-23T23:19:02.588Z,9.37
2022-12-23T23:21:29.901Z,9.35
2022-12-23T23:23:57.165Z,9.34
2022-12-23T23:26:27.181Z,9.33
2022-12-23T23:28:55.724Z,9.33
2022-12-23T23:34:11.358Z,9.33
2022-12-23T23:36:38.641Z,9.35
2022-12-23T23:39:05.705Z,9.31
2022-12-23T23:41:32.836Z,9.28
2022-12-23T23:43:59.926Z,9.33
2022-12-23T23:46:27.090Z,9.31
2022-12-23T23:48:54.194Z,9.32
2022-12-23T23:51:21.316Z,9.33
2022-12-23T23:53:48.445Z,9.33
2022-12-23T23:56:21.940Z,9.33
2022-12-23T23:58:52.138Z,9.32
